createdAt,value
2017-12-09T00:02:04.643Z,4.40
2017-12-09T00:04:32.235Z,4.40
2017-12-09T00:06:59.824Z,4.40
2017-12-09T00:09:27.375Z,4.30
2017-12-09T00:11:54.958Z,4.30
2017-12-09T00:14:22.589Z,4.30
2017-12-09T00:16:50.091Z,4.40
2017-12-09T00:19:17.725Z,4.40
2017-12-09T00:21:45.257Z,4.30
2017-12-09T00:24:12.809Z,4.30
2017-12-09T00:26:40.362Z,4.30
2017-12-09T00:29:08.694Z,4.30
2017-12-09T00:31:36.226Z,4.30
2017-12-09T00:34:03.801Z,4.30
2017-12-09T00:36:31.336Z,4.40
2017-12-09T00:38:58.921Z,4.40
2017-12-09T00:41:26.546Z,4.30
2017-12-09T00:43:54.112Z,4.20
2017-12-09T00:46:21.673Z,4.20
2017-12-09T00:48:49.220Z,4.10
2017-12-09T00:51:16.788Z,4.10
2017-12-09T00:53:44.341Z,4.00
2017-12-09T00:56:11.930Z,4.00
2017-12-09T00:58:39.453Z,4.00
2017-12-09T01:01:07.020Z,4.00
2017-12-09T01:03:34.550Z,4.00
2017-12-09T01:06:02.083Z,4.00
2017-12-09T01:08:29.672Z,4.00
2017-12-09T01:10:57.231Z,4.00
2017-12-09T01:13:24.735Z,4.10
2017-12-09T01:16:04.790Z,4.10
2017-12-09T01:18:44.127Z,4.20
2017-12-09T01:21:11.684Z,4.10
2017-12-09T01:23:39.188Z,4.10
2017-12-09T01:26:06.712Z,4.20
2017-12-09T01:28:34.260Z,4.20
2017-12-09T01:31:01.796Z,4.30
2017-12-09T01:33:29.422Z,4.30
2017-12-09T01:35:57.720Z,4.30
2017-12-09T01:38:25.304Z,4.30
2017-12-09T01:40:52.865Z,4.20
2017-12-09T01:43:20.440Z,4.30
2017-12-09T01:45:47.967Z,4.30
2017-12-09T01:48:15.600Z,4.30
2017-12-09T01:50:43.164Z,4.30
2017-12-09T01:53:10.745Z,4.10
2017-12-09T01:55:38.338Z,4.10
2017-12-09T01:58:05.868Z,4.20
2017-12-09T02:00:34.171Z,4.10
2017-12-09T02:03:01.766Z,4.00
2017-12-09T02:05:29.344Z,4.10
2017-12-09T02:07:56.916Z,4.10
2017-12-09T02:10:25.250Z,4.00
2017-12-09T02:12:52.881Z,4.00
2017-12-09T02:15:20.427Z,4.00
2017-12-09T02:17:48.026Z,4.10
2017-12-09T02:20:15.558Z,4.10
2017-12-09T02:22:43.135Z,4.10
2017-12-09T02:25:10.819Z,4.10
2017-12-09T02:27:38.394Z,4.00
2017-12-09T02:30:06.003Z,4.10
2017-12-09T02:32:33.562Z,4.20
2017-12-09T02:35:01.135Z,4.20
2017-12-09T02:37:28.671Z,4.30
2017-12-09T02:39:56.272Z,4.10
2017-12-09T02:42:23.842Z,4.10
2017-12-09T02:44:51.446Z,4.00
2017-12-09T02:47:19.022Z,4.10
2017-12-09T02:49:46.597Z,4.00
2017-12-09T02:52:14.228Z,4.10
2017-12-09T02:54:41.772Z,4.10
2017-12-09T02:57:10.086Z,4.20
2017-12-09T02:59:37.661Z,4.20
2017-12-09T03:02:05.201Z,4.00
2017-12-09T03:04:32.844Z,4.00
2017-12-09T03:07:00.449Z,4.00
2017-12-09T03:09:28.030Z,4.00
2017-12-09T03:11:55.613Z,3.90
2017-12-09T03:14:23.272Z,4.00
2017-12-09T03:16:50.895Z,4.10
2017-12-09T03:19:18.477Z,4.10
2017-12-09T03:21:46.048Z,4.10
2017-12-09T03:24:13.596Z,4.20
2017-12-09T03:26:41.978Z,4.20
2017-12-09T03:29:11.030Z,4.30
2017-12-09T03:31:38.640Z,4.20
2017-12-09T03:34:06.214Z,4.20
2017-12-09T03:36:34.603Z,4.30
2017-12-09T03:39:02.191Z,4.30
2017-12-09T03:41:30.245Z,4.30
2017-12-09T03:43:57.766Z,4.40
2017-12-09T03:46:25.368Z,4.50
2017-12-09T03:48:52.890Z,4.40
2017-12-09T03:51:20.458Z,4.50
2017-12-09T03:53:48.026Z,4.50
2017-12-09T03:56:16.355Z,4.50
2017-12-09T03:58:43.950Z,4.50
2017-12-09T04:01:11.512Z,4.40
2017-12-09T04:03:39.075Z,4.40
2017-12-09T04:06:06.643Z,4.20
2017-12-09T04:08:34.954Z,4.30
2017-12-09T04:11:02.546Z,4.30
2017-12-09T04:13:31.010Z,4.40
2017-12-09T04:15:58.601Z,4.40
2017-12-09T04:18:26.157Z,4.40
2017-12-09T04:20:53.816Z,4.40
2017-12-09T04:23:21.466Z,4.30
2017-12-09T04:25:49.032Z,4.40
2017-12-09T04:28:16.614Z,4.30
2017-12-09T04:30:44.182Z,4.40
2017-12-09T04:33:12.485Z,4.50
2017-12-09T04:35:40.927Z,4.50
2017-12-09T04:38:09.259Z,4.50
2017-12-09T04:40:36.807Z,4.40
2017-12-09T04:43:04.435Z,4.50
2017-12-09T04:45:32.047Z,4.60
2017-12-09T04:47:59.618Z,4.50
2017-12-09T04:50:27.183Z,4.60
2017-12-09T04:52:54.736Z,4.60
2017-12-09T04:55:22.341Z,4.70
2017-12-09T04:57:49.894Z,4.70
2017-12-09T05:00:17.547Z,4.70
2017-12-09T05:02:45.223Z,4.70
2017-12-09T05:05:12.760Z,4.80
2017-12-09T05:07:40.335Z,4.90
2017-12-09T05:10:08.061Z,5.00
2017-12-09T05:12:35.598Z,4.90
2017-12-09T05:15:03.234Z,5.00
2017-12-09T05:17:31.600Z,4.90
2017-12-09T05:19:59.950Z,4.90
2017-12-09T05:22:27.509Z,4.90
2017-12-09T05:24:55.099Z,5.00
2017-12-09T05:27:23.475Z,4.90
2017-12-09T05:29:51.021Z,4.90
2017-12-09T05:32:18.603Z,4.90
2017-12-09T05:34:46.923Z,5.00
2017-12-09T05:37:14.518Z,5.00
2017-12-09T05:39:43.582Z,4.80
2017-12-09T05:42:11.119Z,4.80
2017-12-09T05:44:38.680Z,4.80
2017-12-09T05:47:06.234Z,4.70
2017-12-09T05:49:34.561Z,4.40
2017-12-09T05:52:02.178Z,4.40
2017-12-09T05:54:29.768Z,4.40
2017-12-09T05:56:57.320Z,4.40
2017-12-09T05:59:24.942Z,4.40
2017-12-09T06:01:53.303Z,4.50
2017-12-09T06:04:21.708Z,4.50
2017-12-09T06:06:50.048Z,4.50
2017-12-09T06:09:17.638Z,4.50
2017-12-09T06:11:45.222Z,4.60
2017-12-09T06:14:12.817Z,4.40
2017-12-09T06:16:40.373Z,4.50
2017-12-09T06:19:07.964Z,4.50
2017-12-09T06:21:35.513Z,4.50
2017-12-09T06:24:03.103Z,4.60
2017-12-09T06:26:31.482Z,4.70
2017-12-09T06:28:59.076Z,4.70
2017-12-09T06:31:26.671Z,4.80
2017-12-09T06:33:54.242Z,4.70
2017-12-09T06:36:21.802Z,4.60
2017-12-09T06:38:49.393Z,4.60
2017-12-09T06:41:16.972Z,4.60
2017-12-09T06:43:44.560Z,4.60
2017-12-09T06:46:12.150Z,4.60
2017-12-09T06:48:39.686Z,4.60
2017-12-09T06:51:07.224Z,4.60
2017-12-09T06:53:34.821Z,4.60
2017-12-09T06:56:02.383Z,4.50
2017-12-09T06:58:29.992Z,4.60
2017-12-09T07:00:57.644Z,4.50
2017-12-09T07:03:25.182Z,4.50
2017-12-09T07:05:52.781Z,4.50
2017-12-09T07:08:20.354Z,4.60
2017-12-09T07:10:47.955Z,4.50
2017-12-09T07:13:15.560Z,4.50
2017-12-09T07:15:43.135Z,4.50
2017-12-09T07:18:10.694Z,4.50
2017-12-09T07:20:38.306Z,4.50
2017-12-09T07:23:05.875Z,4.60
2017-12-09T07:25:34.249Z,4.50
2017-12-09T07:28:01.847Z,4.50
2017-12-09T07:30:29.370Z,4.30
2017-12-09T07:32:56.919Z,4.30
2017-12-09T07:35:25.263Z,4.30
2017-12-09T07:37:52.852Z,4.20
2017-12-09T07:40:20.398Z,4.30
2017-12-09T07:42:47.983Z,4.30
2017-12-09T07:45:16.321Z,4.40
2017-12-09T07:47:43.899Z,4.40
2017-12-09T07:50:11.479Z,4.40
2017-12-09T07:52:39.044Z,4.40
2017-12-09T07:55:07.667Z,4.40
2017-12-09T07:57:35.242Z,4.40
2017-12-09T08:00:02.828Z,4.40
2017-12-09T08:02:30.408Z,4.40
2017-12-09T08:04:57.984Z,4.40
2017-12-09T08:07:25.521Z,4.40
2017-12-09T08:09:53.109Z,4.40
2017-12-09T08:12:20.699Z,4.50
2017-12-09T08:14:48.330Z,4.50
2017-12-09T08:17:15.936Z,4.60
2017-12-09T08:19:43.518Z,4.50
2017-12-09T08:22:11.064Z,4.40
2017-12-09T08:24:38.622Z,4.40
2017-12-09T08:27:06.207Z,4.40
2017-12-09T08:29:33.794Z,4.30
2017-12-09T08:32:01.364Z,4.40
2017-12-09T08:34:28.938Z,4.40
2017-12-09T08:36:56.592Z,4.30
2017-12-09T08:39:24.177Z,4.30
2017-12-09T08:41:51.760Z,4.40
2017-12-09T08:44:19.345Z,4.40
2017-12-09T08:46:46.920Z,4.50
2017-12-09T08:49:14.517Z,4.50
2017-12-09T08:51:42.107Z,4.50
2017-12-09T08:54:09.688Z,4.30
2017-12-09T08:56:37.282Z,4.30
2017-12-09T08:59:04.869Z,4.20
2017-12-09T09:01:32.452Z,4.10
2017-12-09T09:04:00.775Z,3.90
2017-12-09T09:06:28.338Z,3.90
2017-12-09T09:08:55.993Z,3.80
2017-12-09T09:11:23.618Z,3.80
2017-12-09T09:13:51.244Z,3.80
2017-12-09T09:16:18.797Z,3.80
2017-12-09T09:18:46.330Z,3.90
2017-12-09T09:21:13.950Z,3.90
2017-12-09T09:23:42.294Z,4.00
2017-12-09T09:26:09.872Z,4.00
2017-12-09T09:28:37.421Z,4.10
2017-12-09T09:31:05.033Z,4.10
2017-12-09T09:33:32.633Z,4.10
2017-12-09T09:36:00.236Z,4.20
2017-12-09T09:38:28.609Z,4.00
2017-12-09T09:40:56.228Z,4.00
2017-12-09T09:43:23.811Z,4.00
2017-12-09T09:45:51.377Z,3.90
2017-12-09T09:48:20.742Z,4.00
2017-12-09T09:50:48.300Z,4.00
2017-12-09T09:53:15.864Z,4.20
2017-12-09T09:55:43.448Z,4.20
2017-12-09T09:58:11.017Z,4.10
2017-12-09T10:00:38.607Z,4.00
2017-12-09T10:03:06.180Z,4.00
2017-12-09T10:05:33.782Z,3.90
2017-12-09T10:08:01.373Z,3.80
2017-12-09T10:10:28.941Z,3.80
2017-12-09T10:12:57.288Z,3.90
2017-12-09T10:15:24.859Z,3.80
2017-12-09T10:17:52.456Z,3.90
2017-12-09T10:20:20.049Z,3.80
2017-12-09T10:22:47.627Z,3.90
2017-12-09T10:25:15.208Z,3.80
2017-12-09T10:27:42.865Z,3.70
2017-12-09T10:30:10.440Z,3.70
2017-12-09T10:32:38.027Z,3.80
2017-12-09T10:35:06.432Z,4.00
2017-12-09T10:37:34.001Z,4.00
2017-12-09T10:40:01.611Z,4.00
2017-12-09T10:42:29.209Z,4.00
2017-12-09T10:44:56.824Z,3.90
2017-12-09T10:47:25.172Z,3.80
2017-12-09T10:49:52.766Z,3.70
2017-12-09T10:52:20.317Z,3.90
2017-12-09T10:54:48.625Z,3.80
2017-12-09T10:57:16.264Z,3.80
2017-12-09T10:59:43.808Z,3.80
2017-12-09T11:02:12.103Z,3.70
2017-12-09T11:04:39.671Z,3.70
2017-12-09T11:07:07.238Z,3.80
2017-12-09T11:09:34.819Z,3.70
2017-12-09T11:12:02.382Z,3.70
2017-12-09T11:14:30.637Z,3.50
2017-12-09T11:16:58.477Z,3.60
2017-12-09T11:19:26.762Z,3.60
2017-12-09T11:21:54.382Z,3.60
2017-12-09T11:24:21.964Z,3.60
2017-12-09T11:26:49.560Z,3.60
2017-12-09T11:29:17.151Z,3.70
2017-12-09T11:31:45.233Z,3.70
2017-12-09T11:34:12.828Z,3.80
2017-12-09T11:36:41.162Z,3.50
2017-12-09T11:39:08.716Z,3.40
2017-12-09T11:41:36.290Z,3.50
2017-12-09T11:44:04.034Z,3.50
2017-12-09T11:46:31.648Z,3.40
2017-12-09T11:49:00.024Z,3.50
2017-12-09T11:51:27.687Z,3.60
2017-12-09T11:53:55.351Z,3.50
2017-12-09T11:56:24.432Z,3.30
2017-12-09T11:58:52.214Z,3.30
2017-12-09T12:01:20.554Z,3.40
2017-12-09T12:03:48.294Z,3.40
2017-12-09T12:06:15.887Z,3.30
2017-12-09T12:08:43.520Z,3.20
2017-12-09T12:11:11.160Z,3.10
2017-12-09T12:13:38.743Z,3.00
2017-12-09T12:16:06.364Z,2.90
2017-12-09T12:18:34.531Z,2.90
2017-12-09T12:21:02.510Z,2.90
2017-12-09T12:23:31.082Z,3.00
2017-12-09T12:25:58.716Z,2.90
2017-12-09T12:28:26.294Z,2.90
2017-12-09T12:30:55.195Z,2.90
2017-12-09T12:33:23.023Z,2.90
2017-12-09T12:35:50.646Z,2.80
2017-12-09T12:38:18.521Z,2.80
2017-12-09T12:40:46.748Z,2.80
2017-12-09T12:43:14.785Z,2.90
2017-12-09T12:45:42.473Z,3.00
2017-12-09T12:48:10.219Z,2.90
2017-12-09T12:50:37.875Z,2.90
2017-12-09T12:53:05.443Z,3.00
2017-12-09T12:55:33.275Z,3.00
2017-12-09T12:58:01.683Z,3.00
2017-12-09T13:00:29.501Z,2.90
2017-12-09T13:02:58.003Z,3.00
2017-12-09T13:05:26.134Z,3.00
2017-12-09T13:07:54.282Z,3.00
2017-12-09T13:10:22.139Z,3.00
2017-12-09T13:12:50.209Z,3.10
2017-12-09T13:15:17.785Z,2.90
2017-12-09T13:17:45.378Z,2.90
2017-12-09T13:20:13.281Z,2.90
2017-12-09T13:22:41.055Z,2.90
2017-12-09T13:25:08.963Z,2.90
2017-12-09T13:27:36.552Z,2.90
2017-12-09T13:30:04.311Z,2.90
2017-12-09T13:32:32.886Z,3.00
2017-12-09T13:35:01.215Z,2.90
2017-12-09T13:37:28.802Z,2.90
2017-12-09T13:39:56.353Z,2.90
2017-12-09T13:42:23.971Z,2.90
2017-12-09T13:44:51.572Z,2.80
2017-12-09T13:47:19.151Z,2.80
2017-12-09T13:49:46.693Z,2.80
2017-12-09T13:52:14.337Z,2.80
2017-12-09T13:54:41.905Z,3.00
2017-12-09T13:57:09.487Z,3.00
2017-12-09T13:59:37.068Z,2.90
2017-12-09T14:02:04.595Z,3.00
2017-12-09T14:04:32.350Z,2.90
2017-12-09T14:07:00.200Z,2.90
2017-12-09T14:09:27.804Z,3.00
2017-12-09T14:11:55.375Z,3.00
2017-12-09T14:14:23.021Z,3.00
2017-12-09T14:16:50.590Z,3.00
2017-12-09T14:19:18.171Z,2.90
2017-12-09T14:21:45.744Z,2.90
2017-12-09T14:24:14.036Z,2.80
2017-12-09T14:26:41.625Z,2.80
2017-12-09T14:29:09.149Z,2.70
2017-12-09T14:31:36.663Z,2.70
2017-12-09T14:34:04.314Z,2.60
2017-12-09T14:36:31.852Z,2.70
2017-12-09T14:39:00.287Z,2.70
2017-12-09T14:41:28.831Z,2.70
2017-12-09T14:43:56.784Z,2.70
2017-12-09T14:46:24.327Z,2.60
2017-12-09T14:48:51.852Z,2.60
2017-12-09T14:51:19.423Z,2.60
2017-12-09T14:53:47.022Z,2.60
2017-12-09T14:56:14.590Z,2.60
2017-12-09T14:58:42.236Z,2.70
2017-12-09T15:01:09.809Z,2.60
2017-12-09T15:03:37.688Z,2.60
2017-12-09T15:06:05.247Z,2.60
2017-12-09T15:08:32.782Z,2.50
2017-12-09T15:11:00.335Z,2.60
2017-12-09T15:13:28.742Z,2.50
2017-12-09T15:15:56.314Z,2.50
2017-12-09T15:18:23.915Z,2.40
2017-12-09T15:20:52.262Z,2.30
2017-12-09T15:23:21.555Z,2.30
2017-12-09T15:25:49.930Z,2.40
2017-12-09T15:28:17.477Z,2.40
2017-12-09T15:30:45.087Z,2.50
2017-12-09T15:33:12.692Z,2.40
2017-12-09T15:35:40.280Z,2.30
2017-12-09T15:38:07.849Z,2.30
2017-12-09T15:40:35.397Z,2.20
2017-12-09T15:43:02.999Z,2.10
2017-12-09T15:45:31.309Z,2.20
2017-12-09T15:47:58.859Z,2.20
2017-12-09T15:50:26.439Z,2.10
2017-12-09T15:52:53.978Z,2.10
2017-12-09T15:55:21.633Z,2.10
2017-12-09T15:57:49.805Z,2.00
2017-12-09T16:00:17.373Z,1.90
2017-12-09T16:02:45.455Z,1.90
2017-12-09T16:05:13.140Z,1.90
2017-12-09T16:07:40.734Z,1.80
2017-12-09T16:10:08.371Z,1.80
2017-12-09T16:12:36.004Z,1.80
2017-12-09T16:15:03.671Z,1.80
2017-12-09T16:17:31.301Z,1.80
2017-12-09T16:19:58.911Z,1.90
2017-12-09T16:22:26.523Z,1.70
2017-12-09T16:24:54.091Z,1.70
2017-12-09T16:27:21.700Z,1.70
2017-12-09T16:29:49.283Z,1.80
2017-12-09T16:32:16.865Z,1.70
2017-12-09T16:34:45.384Z,1.80
2017-12-09T16:37:12.954Z,1.80
2017-12-09T16:39:40.569Z,1.70
2017-12-09T16:42:08.170Z,1.80
2017-12-09T16:44:35.791Z,1.80
2017-12-09T16:47:03.374Z,1.90
2017-12-09T16:49:30.986Z,1.90
2017-12-09T16:51:58.600Z,1.90
2017-12-09T16:54:27.113Z,2.00
2017-12-09T16:56:54.741Z,2.00
2017-12-09T16:59:22.386Z,2.00
2017-12-09T17:01:49.961Z,2.10
2017-12-09T17:04:17.642Z,2.10
2017-12-09T17:06:45.209Z,2.00
2017-12-09T17:09:12.905Z,1.90
2017-12-09T17:11:41.284Z,1.90
2017-12-09T17:14:09.668Z,1.90
2017-12-09T17:16:37.260Z,1.90
2017-12-09T17:19:04.846Z,1.90
2017-12-09T17:21:32.864Z,1.90
2017-12-09T17:24:02.040Z,1.90
2017-12-09T17:26:29.576Z,1.80
2017-12-09T17:28:57.164Z,1.90
2017-12-09T17:31:24.859Z,1.80
2017-12-09T17:33:52.419Z,1.80
2017-12-09T17:36:19.973Z,1.90
2017-12-09T17:38:47.613Z,1.90
2017-12-09T17:41:15.232Z,1.90
2017-12-09T17:43:42.831Z,1.80
2017-12-09T17:46:11.170Z,1.90
2017-12-09T17:48:38.740Z,1.90
2017-12-09T17:51:06.321Z,1.80
2017-12-09T17:53:33.918Z,1.90
2017-12-09T17:56:01.597Z,1.90
2017-12-09T17:58:29.236Z,1.80
2017-12-09T18:00:57.024Z,1.80
2017-12-09T18:03:24.616Z,1.80
2017-12-09T18:05:52.246Z,1.70
2017-12-09T18:08:19.796Z,1.70
2017-12-09T18:10:47.457Z,1.80
2017-12-09T18:13:15.068Z,1.70
2017-12-09T18:15:42.653Z,1.70
2017-12-09T18:18:10.243Z,1.80
2017-12-09T18:20:37.799Z,1.90
2017-12-09T18:23:05.371Z,1.80
2017-12-09T18:25:32.909Z,1.80
2017-12-09T18:28:00.494Z,1.90
2017-12-09T18:30:28.079Z,1.90
2017-12-09T18:32:55.694Z,1.90
2017-12-09T18:35:23.389Z,1.90
2017-12-09T18:37:51.002Z,1.80
2017-12-09T18:40:19.356Z,1.90
2017-12-09T18:42:46.994Z,1.90
2017-12-09T18:45:14.564Z,2.00
2017-12-09T18:47:42.201Z,2.00
2017-12-09T18:50:09.797Z,1.80
2017-12-09T18:52:37.485Z,1.80
2017-12-09T18:55:05.865Z,1.90
2017-12-09T18:57:33.420Z,1.80
2017-12-09T19:00:01.044Z,2.00
2017-12-09T19:02:28.668Z,1.80
2017-12-09T19:04:56.265Z,1.80
2017-12-09T19:07:23.919Z,1.80
2017-12-09T19:09:51.539Z,1.80
2017-12-09T19:12:19.153Z,1.90
2017-12-09T19:14:46.797Z,1.90
2017-12-09T19:17:14.377Z,1.90
2017-12-09T19:19:42.021Z,1.90
2017-12-09T19:22:09.636Z,2.00
2017-12-09T19:24:37.270Z,2.00
2017-12-09T19:27:04.879Z,1.90
2017-12-09T19:29:32.508Z,1.90
2017-12-09T19:32:00.087Z,1.90
2017-12-09T19:34:27.704Z,2.00
2017-12-09T19:36:55.311Z,2.10
2017-12-09T19:39:23.019Z,2.10
2017-12-09T19:41:50.824Z,2.10
2017-12-09T19:44:19.385Z,2.00
2017-12-09T19:46:47.666Z,2.00
2017-12-09T19:49:15.277Z,2.00
2017-12-09T19:51:42.969Z,2.00
2017-12-09T19:54:10.752Z,2.10
2017-12-09T19:56:38.348Z,2.10
2017-12-09T19:59:05.897Z,2.10
2017-12-09T20:01:34.238Z,2.10
2017-12-09T20:04:01.764Z,2.10
2017-12-09T20:06:29.379Z,2.00
2017-12-09T20:08:57.707Z,2.10
2017-12-09T20:11:25.462Z,2.10
2017-12-09T20:13:53.009Z,2.10
2017-12-09T20:16:21.352Z,2.00
2017-12-09T20:18:49.013Z,2.10
2017-12-09T20:21:16.594Z,2.10
2017-12-09T20:23:45.051Z,2.00
2017-12-09T20:26:12.649Z,2.00
2017-12-09T20:28:40.193Z,2.00
2017-12-09T20:31:09.511Z,2.10
2017-12-09T20:33:37.151Z,2.00
2017-12-09T20:36:05.565Z,2.10
2017-12-09T20:38:33.238Z,2.10
2017-12-09T20:41:00.854Z,2.10
2017-12-09T20:43:29.400Z,2.10
2017-12-09T20:45:57.134Z,2.10
2017-12-09T20:48:24.852Z,2.10
2017-12-09T20:50:53.287Z,2.00
2017-12-09T20:53:20.935Z,2.00
2017-12-09T20:55:48.514Z,2.00
2017-12-09T20:58:16.131Z,2.00
2017-12-09T21:00:43.833Z,2.00
2017-12-09T21:03:11.480Z,2.00
2017-12-09T21:05:39.373Z,2.00
2017-12-09T21:08:07.057Z,2.00
2017-12-09T21:10:34.640Z,1.90
2017-12-09T21:13:02.208Z,2.00
2017-12-09T21:15:31.514Z,2.00
2017-12-09T21:17:59.843Z,1.90
2017-12-09T21:20:27.444Z,1.90
2017-12-09T21:22:54.995Z,2.00
2017-12-09T21:25:22.626Z,2.00
2017-12-09T21:27:50.238Z,2.00
2017-12-09T21:30:17.782Z,2.10
2017-12-09T21:32:46.159Z,2.10
2017-12-09T21:35:13.890Z,2.00
2017-12-09T21:37:41.511Z,2.00
2017-12-09T21:40:09.119Z,2.00
2017-12-09T21:42:36.746Z,2.00
2017-12-09T21:45:07.082Z,2.20
2017-12-09T21:47:37.589Z,2.20
2017-12-09T21:50:05.660Z,2.20
2017-12-09T21:52:35.330Z,2.20
2017-12-09T21:55:03.000Z,2.20
2017-12-09T21:57:31.418Z,2.10
2017-12-09T21:59:59.046Z,2.10
2017-12-09T22:02:26.630Z,2.10
2017-12-09T22:04:55.034Z,2.10
2017-12-09T22:07:22.615Z,2.10
2017-12-09T22:09:50.221Z,2.10
2017-12-09T22:12:18.549Z,2.10
2017-12-09T22:14:46.140Z,2.10
2017-12-09T22:17:13.672Z,2.10
2017-12-09T22:19:41.247Z,2.00
2017-12-09T22:22:08.857Z,1.90
2017-12-09T22:24:36.431Z,1.90
2017-12-09T22:27:04.054Z,1.90
2017-12-09T22:29:31.601Z,1.90
2017-12-09T22:31:59.194Z,1.90
2017-12-09T22:34:26.767Z,1.80
2017-12-09T22:36:54.368Z,1.90
2017-12-09T22:39:22.731Z,1.80
2017-12-09T22:41:50.309Z,1.80
2017-12-09T22:44:17.935Z,1.80
2017-12-09T22:46:45.498Z,1.90
2017-12-09T22:49:13.743Z,1.90
2017-12-09T22:51:42.121Z,1.90
2017-12-09T22:54:09.772Z,1.80
2017-12-09T22:56:38.093Z,1.90
2017-12-09T22:59:06.064Z,1.90
2017-12-09T23:01:33.624Z,1.90
2017-12-09T23:04:01.184Z,1.90
2017-12-09T23:06:28.804Z,1.90
2017-12-09T23:08:56.343Z,1.90
2017-12-09T23:11:23.958Z,1.90
2017-12-09T23:13:51.555Z,1.90
2017-12-09T23:16:19.132Z,1.90
2017-12-09T23:18:46.743Z,1.90
2017-12-09T23:21:14.373Z,2.00
2017-12-09T23:23:41.970Z,2.00
2017-12-09T23:26:09.532Z,1.90
2017-12-09T23:28:37.200Z,1.90
2017-12-09T23:31:04.808Z,1.90
2017-12-09T23:33:32.392Z,2.00
2017-12-09T23:35:59.967Z,2.00
2017-12-09T23:38:27.558Z,1.90
2017-12-09T23:40:55.109Z,1.90
2017-12-09T23:43:22.710Z,1.90
2017-12-09T23:45:50.350Z,1.90
2017-12-09T23:48:17.997Z,1.90
2017-12-09T23:50:45.565Z,1.90
2017-12-09T23:53:14.103Z,1.90
2017-12-09T23:55:41.675Z,1.90
2017-12-09T23:58:09.284Z,1.90
